sensor_id;sensor_type;location;lat;lon;timestamp;P1;durP1;ratioP1;P2;durP2;ratioP2
73900;SDS011;62235;52.160;7.526;2023-03-07T00:01:41;43.25;;;22.38;;
73900;SDS011;62235;52.160;7.526;2023-03-07T00:04:07;39.33;;;19.08;;
73900;SDS011;62235;52.160;7.526;2023-03-07T00:06:33;39.25;;;17.63;;
73900;SDS011;62235;52.160;7.526;2023-03-07T00:08:59;42.27;;;24.23;;
73900;SDS011;62235;52.160;7.526;2023-03-07T00:11:25;35.05;;;15.77;;
73900;SDS011;62235;52.160;7.526;2023-03-07T00:13:51;35.75;;;16.63;;
73900;SDS011;62235;52.160;7.526;2023-03-07T00:16:18;33.83;;;16.70;;
73900;SDS011;62235;52.160;7.526;2023-03-07T00:18:44;35.65;;;21.95;;
73900;SDS011;62235;52.160;7.526;2023-03-07T00:21:11;36.45;;;21.67;;
73900;SDS011;62235;52.160;7.526;2023-03-07T00:23:38;20.45;;;8.68;;
73900;SDS011;62235;52.160;7.526;2023-03-07T00:26:06;31.02;;;15.77;;
73900;SDS011;62235;52.160;7.526;2023-03-07T00:28:32;26.13;;;12.15;;
73900;SDS011;62235;52.160;7.526;2023-03-07T00:30:59;21.08;;;9.45;;
73900;SDS011;62235;52.160;7.526;2023-03-07T00:33:26;16.73;;;7.88;;
73900;SDS011;62235;52.160;7.526;2023-03-07T00:35:55;9.80;;;5.22;;
73900;SDS011;62235;52.160;7.526;2023-03-07T00:38:24;22.23;;;10.75;;
73900;SDS011;62235;52.160;7.526;2023-03-07T00:40:56;17.15;;;8.68;;
73900;SDS011;62235;52.160;7.526;2023-03-07T00:43:25;14.25;;;6.68;;
73900;SDS011;62235;52.160;7.526;2023-03-07T00:45:51;13.13;;;6.93;;
73900;SDS011;62235;52.160;7.526;2023-03-07T00:48:16;14.82;;;7.00;;
73900;SDS011;62235;52.160;7.526;2023-03-07T00:50:42;11.18;;;5.18;;
73900;SDS011;62235;52.160;7.526;2023-03-07T00:53:08;12.68;;;5.93;;
73900;SDS011;62235;52.160;7.526;2023-03-07T00:55:33;12.87;;;5.40;;
73900;SDS011;62235;52.160;7.526;2023-03-07T00:57:58;15.50;;;7.43;;
73900;SDS011;62235;52.160;7.526;2023-03-07T01:00:23;16.07;;;7.63;;
73900;SDS011;62235;52.160;7.526;2023-03-07T01:02:49;11.13;;;5.87;;
73900;SDS011;62235;52.160;7.526;2023-03-07T01:05:15;19.15;;;10.15;;
73900;SDS011;62235;52.160;7.526;2023-03-07T01:07:40;14.40;;;6.85;;
73900;SDS011;62235;52.160;7.526;2023-03-07T01:10:05;14.40;;;6.50;;
73900;SDS011;62235;52.160;7.526;2023-03-07T01:12:31;15.32;;;7.80;;
73900;SDS011;62235;52.160;7.526;2023-03-07T01:14:56;10.77;;;4.83;;
73900;SDS011;62235;52.160;7.526;2023-03-07T01:17:22;7.85;;;4.18;;
73900;SDS011;62235;52.160;7.526;2023-03-07T01:19:47;8.70;;;4.33;;
73900;SDS011;62235;52.160;7.526;2023-03-07T01:22:12;17.37;;;7.23;;
73900;SDS011;62235;52.160;7.526;2023-03-07T01:24:38;7.10;;;2.17;;
73900;SDS011;62235;52.160;7.526;2023-03-07T01:27:03;15.93;;;8.43;;
73900;SDS011;62235;52.160;7.526;2023-03-07T01:29:29;11.73;;;4.72;;
73900;SDS011;62235;52.160;7.526;2023-03-07T01:31:54;15.43;;;7.73;;
73900;SDS011;62235;52.160;7.526;2023-03-07T01:34:19;6.23;;;2.97;;
73900;SDS011;62235;52.160;7.526;2023-03-07T01:36:45;14.00;;;8.38;;
73900;SDS011;62235;52.160;7.526;2023-03-07T01:39:13;14.30;;;8.43;;
73900;SDS011;62235;52.160;7.526;2023-03-07T01:41:41;6.80;;;3.47;;
73900;SDS011;62235;52.160;7.526;2023-03-07T01:44:14;16.50;;;6.95;;
73900;SDS011;62235;52.160;7.526;2023-03-07T01:52:00;6.95;;;3.25;;
73900;SDS011;62235;52.160;7.526;2023-03-07T01:54:28;10.65;;;5.53;;
73900;SDS011;62235;52.160;7.526;2023-03-07T01:56:55;5.15;;;2.22;;
73900;SDS011;62235;52.160;7.526;2023-03-07T01:59:23;11.75;;;6.25;;
73900;SDS011;62235;52.160;7.526;2023-03-07T02:01:52;14.05;;;7.35;;
73900;SDS011;62235;52.160;7.526;2023-03-07T02:04:20;6.43;;;3.10;;
73900;SDS011;62235;52.160;7.526;2023-03-07T02:06:48;12.95;;;6.03;;
73900;SDS011;62235;52.160;7.526;2023-03-07T02:09:14;6.63;;;3.27;;
73900;SDS011;62235;52.160;7.526;2023-03-07T02:11:41;16.95;;;8.88;;
73900;SDS011;62235;52.160;7.526;2023-03-07T02:14:08;10.13;;;6.30;;
73900;SDS011;62235;52.160;7.526;2023-03-07T02:16:34;5.97;;;3.58;;
73900;SDS011;62235;52.160;7.526;2023-03-07T02:18:59;7.88;;;4.10;;
73900;SDS011;62235;52.160;7.526;2023-03-07T02:21:31;10.02;;;5.28;;
73900;SDS011;62235;52.160;7.526;2023-03-07T02:28:57;6.77;;;4.13;;
73900;SDS011;62235;52.160;7.526;2023-03-07T02:31:23;8.88;;;4.35;;
73900;SDS011;62235;52.160;7.526;2023-03-07T02:33:48;6.90;;;3.60;;
73900;SDS011;62235;52.160;7.526;2023-03-07T02:36:24;6.57;;;3.27;;
73900;SDS011;62235;52.160;7.526;2023-03-07T02:38:51;8.07;;;4.25;;
73900;SDS011;62235;52.160;7.526;2023-03-07T02:41:19;6.45;;;2.75;;
73900;SDS011;62235;52.160;7.526;2023-03-07T02:43:48;6.93;;;4.88;;
73900;SDS011;62235;52.160;7.526;2023-03-07T02:46:13;5.27;;;3.07;;
73900;SDS011;62235;52.160;7.526;2023-03-07T02:48:39;6.03;;;3.30;;
73900;SDS011;62235;52.160;7.526;2023-03-07T02:51:04;5.63;;;3.13;;
73900;SDS011;62235;52.160;7.526;2023-03-07T02:53:29;10.02;;;5.35;;
73900;SDS011;62235;52.160;7.526;2023-03-07T02:55:55;7.87;;;4.87;;
73900;SDS011;62235;52.160;7.526;2023-03-07T02:58:20;10.47;;;5.93;;
73900;SDS011;62235;52.160;7.526;2023-03-07T03:00:46;3.95;;;2.13;;
73900;SDS011;62235;52.160;7.526;2023-03-07T03:03:11;10.67;;;5.20;;
73900;SDS011;62235;52.160;7.526;2023-03-07T03:05:36;13.77;;;6.70;;
73900;SDS011;62235;52.160;7.526;2023-03-07T03:08:02;13.30;;;5.45;;
73900;SDS011;62235;52.160;7.526;2023-03-07T03:10:27;10.90;;;5.20;;
73900;SDS011;62235;52.160;7.526;2023-03-07T03:12:52;19.10;;;7.23;;
73900;SDS011;62235;52.160;7.526;2023-03-07T03:15:18;12.30;;;6.30;;
73900;SDS011;62235;52.160;7.526;2023-03-07T03:17:43;9.80;;;4.97;;
73900;SDS011;62235;52.160;7.526;2023-03-07T03:20:08;14.37;;;8.17;;
73900;SDS011;62235;52.160;7.526;2023-03-07T03:22:36;14.27;;;6.28;;
73900;SDS011;62235;52.160;7.526;2023-03-07T03:25:02;12.75;;;6.85;;
73900;SDS011;62235;52.160;7.526;2023-03-07T03:27:30;6.55;;;3.30;;
73900;SDS011;62235;52.160;7.526;2023-03-07T03:29:56;9.85;;;4.70;;
73900;SDS011;62235;52.160;7.526;2023-03-07T03:32:22;5.83;;;3.00;;
73900;SDS011;62235;52.160;7.526;2023-03-07T03:34:47;4.50;;;2.23;;
73900;SDS011;62235;52.160;7.526;2023-03-07T03:37:12;10.63;;;5.50;;
73900;SDS011;62235;52.160;7.526;2023-03-07T03:39:37;8.30;;;4.33;;
73900;SDS011;62235;52.160;7.526;2023-03-07T03:42:03;10.88;;;5.68;;
73900;SDS011;62235;52.160;7.526;2023-03-07T03:44:30;12.45;;;6.50;;
73900;SDS011;62235;52.160;7.526;2023-03-07T03:46:55;13.43;;;6.57;;
73900;SDS011;62235;52.160;7.526;2023-03-07T03:49:20;7.27;;;4.00;;
73900;SDS011;62235;52.160;7.526;2023-03-07T03:51:46;6.60;;;3.72;;
73900;SDS011;62235;52.160;7.526;2023-03-07T03:54:11;11.67;;;5.17;;
73900;SDS011;62235;52.160;7.526;2023-03-07T03:56:36;7.53;;;3.67;;
73900;SDS011;62235;52.160;7.526;2023-03-07T03:59:02;9.60;;;4.13;;
73900;SDS011;62235;52.160;7.526;2023-03-07T04:01:27;4.63;;;2.53;;
73900;SDS011;62235;52.160;7.526;2023-03-07T04:03:53;8.43;;;4.00;;
73900;SDS011;62235;52.160;7.526;2023-03-07T04:06:20;9.75;;;5.10;;
73900;SDS011;62235;52.160;7.526;2023-03-07T04:08:47;4.85;;;2.58;;
73900;SDS011;62235;52.160;7.526;2023-03-07T04:11:13;13.30;;;5.22;;
73900;SDS011;62235;52.160;7.526;2023-03-07T04:13:39;4.07;;;2.13;;
73900;SDS011;62235;52.160;7.526;2023-03-07T04:16:04;11.52;;;5.65;;
73900;SDS011;62235;52.160;7.526;2023-03-07T04:18:30;9.32;;;4.45;;
73900;SDS011;62235;52.160;7.526;2023-03-07T04:20:55;9.23;;;4.95;;
73900;SDS011;62235;52.160;7.526;2023-03-07T04:23:22;10.95;;;6.20;;
73900;SDS011;62235;52.160;7.526;2023-03-07T04:25:49;10.02;;;4.65;;
73900;SDS011;62235;52.160;7.526;2023-03-07T04:28:15;8.93;;;3.85;;
73900;SDS011;62235;52.160;7.526;2023-03-07T04:30:41;8.15;;;4.38;;
73900;SDS011;62235;52.160;7.526;2023-03-07T04:33:07;3.00;;;1.88;;
73900;SDS011;62235;52.160;7.526;2023-03-07T04:35:32;11.93;;;5.00;;
73900;SDS011;62235;52.160;7.526;2023-03-07T04:37:57;10.03;;;3.90;;
73900;SDS011;62235;52.160;7.526;2023-03-07T04:40:23;6.00;;;3.10;;
73900;SDS011;62235;52.160;7.526;2023-03-07T04:42:48;7.60;;;2.43;;
73900;SDS011;62235;52.160;7.526;2023-03-07T04:45:13;8.37;;;3.57;;
73900;SDS011;62235;52.160;7.526;2023-03-07T04:47:39;7.32;;;3.50;;
73900;SDS011;62235;52.160;7.526;2023-03-07T04:50:04;4.67;;;2.90;;
73900;SDS011;62235;52.160;7.526;2023-03-07T04:52:30;7.35;;;3.28;;
73900;SDS011;62235;52.160;7.526;2023-03-07T04:54:55;5.30;;;2.53;;
73900;SDS011;62235;52.160;7.526;2023-03-07T04:57:21;6.63;;;3.05;;
73900;SDS011;62235;52.160;7.526;2023-03-07T04:59:46;8.90;;;3.47;;
73900;SDS011;62235;52.160;7.526;2023-03-07T05:02:12;6.47;;;3.53;;
73900;SDS011;62235;52.160;7.526;2023-03-07T05:04:37;4.28;;;2.05;;
73900;SDS011;62235;52.160;7.526;2023-03-07T05:07:03;7.57;;;3.80;;
73900;SDS011;62235;52.160;7.526;2023-03-07T05:09:28;5.78;;;3.05;;
73900;SDS011;62235;52.160;7.526;2023-03-07T05:11:54;5.35;;;2.72;;
73900;SDS011;62235;52.160;7.526;2023-03-07T05:14:19;7.70;;;3.13;;
73900;SDS011;62235;52.160;7.526;2023-03-07T05:16:44;2.47;;;1.20;;
73900;SDS011;62235;52.160;7.526;2023-03-07T05:19:10;9.07;;;4.20;;
73900;SDS011;62235;52.160;7.526;2023-03-07T05:21:37;2.55;;;1.67;;
73900;SDS011;62235;52.160;7.526;2023-03-07T05:24:04;8.38;;;3.28;;
73900;SDS011;62235;52.160;7.526;2023-03-07T05:26:30;10.07;;;4.00;;
73900;SDS011;62235;52.160;7.526;2023-03-07T05:28:55;8.90;;;3.67;;
73900;SDS011;62235;52.160;7.526;2023-03-07T05:31:21;9.07;;;3.90;;
73900;SDS011;62235;52.160;7.526;2023-03-07T05:33:46;9.60;;;3.87;;
73900;SDS011;62235;52.160;7.526;2023-03-07T05:36:11;4.30;;;2.33;;
73900;SDS011;62235;52.160;7.526;2023-03-07T05:38:37;4.43;;;2.07;;
73900;SDS011;62235;52.160;7.526;2023-03-07T05:41:02;7.07;;;3.60;;
73900;SDS011;62235;52.160;7.526;2023-03-07T05:43:27;4.38;;;1.88;;
73900;SDS011;62235;52.160;7.526;2023-03-07T05:45:53;9.07;;;3.20;;
73900;SDS011;62235;52.160;7.526;2023-03-07T05:48:18;9.43;;;3.47;;
73900;SDS011;62235;52.160;7.526;2023-03-07T05:50:44;6.83;;;1.87;;
73900;SDS011;62235;52.160;7.526;2023-03-07T05:53:09;8.67;;;2.53;;
73900;SDS011;62235;52.160;7.526;2023-03-07T05:55:34;4.70;;;2.45;;
73900;SDS011;62235;52.160;7.526;2023-03-07T05:58:00;5.15;;;1.65;;
73900;SDS011;62235;52.160;7.526;2023-03-07T06:00:25;4.97;;;1.20;;
73900;SDS011;62235;52.160;7.526;2023-03-07T06:02:51;5.05;;;2.15;;
73900;SDS011;62235;52.160;7.526;2023-03-07T06:05:16;6.30;;;2.00;;
73900;SDS011;62235;52.160;7.526;2023-03-07T06:07:42;2.05;;;1.00;;
73900;SDS011;62235;52.160;7.526;2023-03-07T06:10:08;4.82;;;1.52;;
73900;SDS011;62235;52.160;7.526;2023-03-07T06:12:34;5.50;;;1.05;;
73900;SDS011;62235;52.160;7.526;2023-03-07T06:14:59;7.23;;;1.70;;
73900;SDS011;62235;52.160;7.526;2023-03-07T06:17:25;6.82;;;1.67;;
73900;SDS011;62235;52.160;7.526;2023-03-07T06:19:50;4.23;;;1.80;;
73900;SDS011;62235;52.160;7.526;2023-03-07T06:22:15;5.67;;;2.00;;
73900;SDS011;62235;52.160;7.526;2023-03-07T06:24:41;6.20;;;1.88;;
73900;SDS011;62235;52.160;7.526;2023-03-07T06:27:06;8.30;;;1.45;;
73900;SDS011;62235;52.160;7.526;2023-03-07T06:29:32;2.58;;;1.30;;
73900;SDS011;62235;52.160;7.526;2023-03-07T06:31:58;2.45;;;1.25;;
73900;SDS011;62235;52.160;7.526;2023-03-07T06:34:23;2.78;;;1.27;;
73900;SDS011;62235;52.160;7.526;2023-03-07T06:36:48;1.50;;;1.02;;
73900;SDS011;62235;52.160;7.526;2023-03-07T06:39:14;9.33;;;0.77;;
73900;SDS011;62235;52.160;7.526;2023-03-07T06:41:45;4.15;;;1.33;;
73900;SDS011;62235;52.160;7.526;2023-03-07T06:44:11;2.15;;;1.08;;
73900;SDS011;62235;52.160;7.526;2023-03-07T06:46:36;5.40;;;1.53;;
73900;SDS011;62235;52.160;7.526;2023-03-07T06:49:02;3.20;;;0.93;;
73900;SDS011;62235;52.160;7.526;2023-03-07T06:51:27;3.57;;;1.10;;
73900;SDS011;62235;52.160;7.526;2023-03-07T06:53:52;4.40;;;1.67;;
73900;SDS011;62235;52.160;7.526;2023-03-07T06:56:17;4.55;;;1.00;;
73900;SDS011;62235;52.160;7.526;2023-03-07T06:58:43;1.43;;;0.80;;
73900;SDS011;62235;52.160;7.526;2023-03-07T07:01:14;2.23;;;0.77;;
73900;SDS011;62235;52.160;7.526;2023-03-07T07:03:48;3.17;;;1.08;;
73900;SDS011;62235;52.160;7.526;2023-03-07T07:06:13;1.37;;;0.57;;
73900;SDS011;62235;52.160;7.526;2023-03-07T07:08:39;2.47;;;0.63;;
73900;SDS011;62235;52.160;7.526;2023-03-07T07:11:04;0.88;;;0.57;;
73900;SDS011;62235;52.160;7.526;2023-03-07T07:13:30;4.95;;;1.30;;
73900;SDS011;62235;52.160;7.526;2023-03-07T07:15:55;2.70;;;1.20;;
73900;SDS011;62235;52.160;7.526;2023-03-07T07:18:22;2.88;;;1.30;;
73900;SDS011;62235;52.160;7.526;2023-03-07T07:20:54;6.53;;;1.40;;
73900;SDS011;62235;52.160;7.526;2023-03-07T07:23:20;5.85;;;0.60;;
73900;SDS011;62235;52.160;7.526;2023-03-07T07:25:45;1.60;;;0.83;;
73900;SDS011;62235;52.160;7.526;2023-03-07T07:28:10;4.70;;;1.20;;
73900;SDS011;62235;52.160;7.526;2023-03-07T07:30:36;2.13;;;0.88;;
73900;SDS011;62235;52.160;7.526;2023-03-07T07:33:01;2.33;;;0.90;;
73900;SDS011;62235;52.160;7.526;2023-03-07T07:35:27;2.50;;;0.50;;
73900;SDS011;62235;52.160;7.526;2023-03-07T07:37:52;2.75;;;0.50;;
73900;SDS011;62235;52.160;7.526;2023-03-07T07:40:18;4.38;;;1.00;;
73900;SDS011;62235;52.160;7.526;2023-03-07T07:42:43;3.20;;;1.20;;
73900;SDS011;62235;52.160;7.526;2023-03-07T07:45:13;1.65;;;0.50;;
73900;SDS011;62235;52.160;7.526;2023-03-07T07:47:38;4.37;;;0.80;;
73900;SDS011;62235;52.160;7.526;2023-03-07T07:50:04;3.65;;;0.90;;
73900;SDS011;62235;52.160;7.526;2023-03-07T07:52:29;3.60;;;0.70;;
73900;SDS011;62235;52.160;7.526;2023-03-07T07:54:55;2.53;;;0.70;;
73900;SDS011;62235;52.160;7.526;2023-03-07T07:57:20;2.47;;;0.60;;
73900;SDS011;62235;52.160;7.526;2023-03-07T07:59:45;3.70;;;1.00;;
73900;SDS011;62235;52.160;7.526;2023-03-07T08:02:11;2.97;;;0.60;;
73900;SDS011;62235;52.160;7.526;2023-03-07T08:04:37;5.95;;;1.30;;
73900;SDS011;62235;52.160;7.526;2023-03-07T08:07:03;4.97;;;1.25;;
73900;SDS011;62235;52.160;7.526;2023-03-07T08:09:28;5.25;;;1.17;;
73900;SDS011;62235;52.160;7.526;2023-03-07T08:11:53;1.70;;;0.80;;
73900;SDS011;62235;52.160;7.526;2023-03-07T08:14:19;3.27;;;1.00;;
73900;SDS011;62235;52.160;7.526;2023-03-07T08:16:44;2.60;;;0.55;;
73900;SDS011;62235;52.160;7.526;2023-03-07T08:19:09;3.47;;;1.23;;
73900;SDS011;62235;52.160;7.526;2023-03-07T08:21:35;5.70;;;1.20;;
73900;SDS011;62235;52.160;7.526;2023-03-07T08:24:00;2.58;;;0.63;;
73900;SDS011;62235;52.160;7.526;2023-03-07T08:26:26;3.05;;;1.15;;
73900;SDS011;62235;52.160;7.526;2023-03-07T08:28:51;3.95;;;1.08;;
73900;SDS011;62235;52.160;7.526;2023-03-07T08:31:18;5.47;;;1.50;;
73900;SDS011;62235;52.160;7.526;2023-03-07T08:33:47;6.28;;;1.10;;
73900;SDS011;62235;52.160;7.526;2023-03-07T08:36:13;2.38;;;1.17;;
73900;SDS011;62235;52.160;7.526;2023-03-07T08:38:38;5.80;;;1.17;;
73900;SDS011;62235;52.160;7.526;2023-03-07T08:41:05;2.85;;;0.90;;
73900;SDS011;62235;52.160;7.526;2023-03-07T08:43:33;3.30;;;1.10;;
73900;SDS011;62235;52.160;7.526;2023-03-07T08:46:00;2.30;;;1.20;;
73900;SDS011;62235;52.160;7.526;2023-03-07T08:48:26;2.15;;;0.95;;
73900;SDS011;62235;52.160;7.526;2023-03-07T08:50:51;3.38;;;1.20;;
73900;SDS011;62235;52.160;7.526;2023-03-07T08:53:17;2.70;;;1.20;;
73900;SDS011;62235;52.160;7.526;2023-03-07T08:55:43;4.05;;;1.20;;
73900;SDS011;62235;52.160;7.526;2023-03-07T08:58:09;3.40;;;1.20;;
73900;SDS011;62235;52.160;7.526;2023-03-07T09:00:35;3.58;;;1.45;;
73900;SDS011;62235;52.160;7.526;2023-03-07T09:03:01;4.43;;;1.70;;
73900;SDS011;62235;52.160;7.526;2023-03-07T09:05:27;3.78;;;1.40;;
73900;SDS011;62235;52.160;7.526;2023-03-07T09:07:53;2.65;;;1.02;;
73900;SDS011;62235;52.160;7.526;2023-03-07T09:10:18;3.72;;;1.20;;
73900;SDS011;62235;52.160;7.526;2023-03-07T09:12:44;2.90;;;1.42;;
73900;SDS011;62235;52.160;7.526;2023-03-07T09:15:10;3.25;;;1.40;;
73900;SDS011;62235;52.160;7.526;2023-03-07T09:17:36;2.72;;;1.25;;
73900;SDS011;62235;52.160;7.526;2023-03-07T09:20:01;5.57;;;1.57;;
73900;SDS011;62235;52.160;7.526;2023-03-07T09:22:27;3.03;;;1.15;;
73900;SDS011;62235;52.160;7.526;2023-03-07T09:24:52;4.10;;;1.50;;
73900;SDS011;62235;52.160;7.526;2023-03-07T09:27:18;2.17;;;1.03;;
73900;SDS011;62235;52.160;7.526;2023-03-07T09:29:43;2.73;;;1.13;;
73900;SDS011;62235;52.160;7.526;2023-03-07T09:32:08;1.55;;;0.95;;
73900;SDS011;62235;52.160;7.526;2023-03-07T09:34:34;1.80;;;0.70;;
73900;SDS011;62235;52.160;7.526;2023-03-07T09:36:59;4.40;;;1.00;;
73900;SDS011;62235;52.160;7.526;2023-03-07T09:39:24;3.30;;;1.50;;
73900;SDS011;62235;52.160;7.526;2023-03-07T09:45:19;2.10;;;0.60;;
73900;SDS011;62235;52.160;7.526;2023-03-07T09:53:12;3.38;;;0.82;;
73900;SDS011;62235;52.160;7.526;2023-03-07T09:55:42;2.33;;;1.30;;
73900;SDS011;62235;52.160;7.526;2023-03-07T09:58:08;3.47;;;1.40;;
73900;SDS011;62235;52.160;7.526;2023-03-07T10:00:43;2.35;;;1.13;;
73900;SDS011;62235;52.160;7.526;2023-03-07T10:05:55;2.53;;;1.10;;
73900;SDS011;62235;52.160;7.526;2023-03-07T10:08:29;0.52;;;0.35;;
73900;SDS011;62235;52.160;7.526;2023-03-07T10:13:47;3.25;;;0.95;;
73900;SDS011;62235;52.160;7.526;2023-03-07T10:16:22;1.00;;;0.63;;
73900;SDS011;62235;52.160;7.526;2023-03-07T10:27:31;2.22;;;0.55;;
73900;SDS011;62235;52.160;7.526;2023-03-07T10:29:57;2.05;;;1.10;;
73900;SDS011;62235;52.160;7.526;2023-03-07T10:37:47;2.90;;;1.10;;
73900;SDS011;62235;52.160;7.526;2023-03-07T10:40:28;1.55;;;1.17;;
73900;SDS011;62235;52.160;7.526;2023-03-07T10:42:57;3.38;;;1.02;;
73900;SDS011;62235;52.160;7.526;2023-03-07T10:45:23;3.50;;;1.23;;
73900;SDS011;62235;52.160;7.526;2023-03-07T10:47:53;4.13;;;1.50;;
73900;SDS011;62235;52.160;7.526;2023-03-07T10:50:21;3.13;;;0.90;;
73900;SDS011;62235;52.160;7.526;2023-03-07T10:52:51;2.38;;;1.05;;
73900;SDS011;62235;52.160;7.526;2023-03-07T11:00:56;2.05;;;0.82;;
73900;SDS011;62235;52.160;7.526;2023-03-07T11:06:02;3.03;;;0.93;;
73900;SDS011;62235;52.160;7.526;2023-03-07T11:11:01;2.35;;;0.77;;
73900;SDS011;62235;52.160;7.526;2023-03-07T11:13:28;1.23;;;0.70;;
73900;SDS011;62235;52.160;7.526;2023-03-07T11:16:09;2.60;;;0.57;;
73900;SDS011;62235;52.160;7.526;2023-03-07T11:18:40;3.42;;;0.98;;
73900;SDS011;62235;52.160;7.526;2023-03-07T11:21:23;4.07;;;1.25;;
73900;SDS011;62235;52.160;7.526;2023-03-07T11:23:58;2.17;;;1.02;;
73900;SDS011;62235;52.160;7.526;2023-03-07T11:26:31;2.65;;;1.27;;
73900;SDS011;62235;52.160;7.526;2023-03-07T11:29:08;2.17;;;0.77;;
73900;SDS011;62235;52.160;7.526;2023-03-07T11:31:38;0.65;;;0.38;;
73900;SDS011;62235;52.160;7.526;2023-03-07T11:34:14;3.03;;;0.90;;
73900;SDS011;62235;52.160;7.526;2023-03-07T11:37:07;3.90;;;1.30;;
73900;SDS011;62235;52.160;7.526;2023-03-07T11:39:52;2.85;;;1.17;;
73900;SDS011;62235;52.160;7.526;2023-03-07T11:42:32;2.20;;;0.98;;
73900;SDS011;62235;52.160;7.526;2023-03-07T11:45:14;1.88;;;0.98;;
73900;SDS011;62235;52.160;7.526;2023-03-07T11:52:55;3.00;;;1.27;;
73900;SDS011;62235;52.160;7.526;2023-03-07T11:55:30;4.07;;;1.35;;
73900;SDS011;62235;52.160;7.526;2023-03-07T11:58:21;2.85;;;1.00;;
73900;SDS011;62235;52.160;7.526;2023-03-07T12:14:29;4.55;;;1.13;;
73900;SDS011;62235;52.160;7.526;2023-03-07T12:17:15;3.60;;;1.73;;
73900;SDS011;62235;52.160;7.526;2023-03-07T12:22:49;3.85;;;1.60;;
73900;SDS011;62235;52.160;7.526;2023-03-07T12:25:24;1.92;;;0.70;;
73900;SDS011;62235;52.160;7.526;2023-03-07T12:28:01;2.58;;;1.10;;
73900;SDS011;62235;52.160;7.526;2023-03-07T12:30:33;5.03;;;1.05;;
73900;SDS011;62235;52.160;7.526;2023-03-07T12:33:04;1.08;;;0.68;;
73900;SDS011;62235;52.160;7.526;2023-03-07T12:35:44;3.05;;;1.33;;
73900;SDS011;62235;52.160;7.526;2023-03-07T12:41:27;5.05;;;0.85;;
73900;SDS011;62235;52.160;7.526;2023-03-07T12:43:58;4.70;;;1.92;;
73900;SDS011;62235;52.160;7.526;2023-03-07T12:46:37;3.08;;;0.90;;
73900;SDS011;62235;52.160;7.526;2023-03-07T12:52:13;2.28;;;1.20;;
73900;SDS011;62235;52.160;7.526;2023-03-07T12:54:49;1.23;;;0.95;;
73900;SDS011;62235;52.160;7.526;2023-03-07T12:57:33;3.10;;;1.55;;
73900;SDS011;62235;52.160;7.526;2023-03-07T13:00:06;3.63;;;1.90;;
73900;SDS011;62235;52.160;7.526;2023-03-07T13:02:55;3.25;;;1.20;;
73900;SDS011;62235;52.160;7.526;2023-03-07T13:05:23;4.45;;;1.55;;
73900;SDS011;62235;52.160;7.526;2023-03-07T13:07:49;2.00;;;1.05;;
73900;SDS011;62235;52.160;7.526;2023-03-07T13:10:19;6.10;;;1.35;;
73900;SDS011;62235;52.160;7.526;2023-03-07T13:12:46;5.45;;;1.33;;
73900;SDS011;62235;52.160;7.526;2023-03-07T13:27:45;4.10;;;1.17;;
73900;SDS011;62235;52.160;7.526;2023-03-07T13:30:31;2.85;;;1.20;;
73900;SDS011;62235;52.160;7.526;2023-03-07T13:41:11;2.67;;;0.90;;
73900;SDS011;62235;52.160;7.526;2023-03-07T13:51:14;3.33;;;0.60;;
73900;SDS011;62235;52.160;7.526;2023-03-07T13:53:47;0.90;;;0.40;;
73900;SDS011;62235;52.160;7.526;2023-03-07T13:58:46;1.10;;;0.50;;
73900;SDS011;62235;52.160;7.526;2023-03-07T14:01:17;0.77;;;0.32;;
73900;SDS011;62235;52.160;7.526;2023-03-07T14:03:44;4.07;;;1.70;;
73900;SDS011;62235;52.160;7.526;2023-03-07T14:06:16;1.10;;;0.70;;
73900;SDS011;62235;52.160;7.526;2023-03-07T14:08:43;6.18;;;2.33;;
73900;SDS011;62235;52.160;7.526;2023-03-07T14:11:14;1.77;;;0.85;;
73900;SDS011;62235;52.160;7.526;2023-03-07T14:18:54;1.70;;;0.50;;
73900;SDS011;62235;52.160;7.526;2023-03-07T14:27:13;0.60;;;0.13;;
73900;SDS011;62235;52.160;7.526;2023-03-07T14:29:49;1.33;;;0.40;;
73900;SDS011;62235;52.160;7.526;2023-03-07T14:32:26;1.98;;;0.43;;
73900;SDS011;62235;52.160;7.526;2023-03-07T14:34:53;2.38;;;0.55;;
73900;SDS011;62235;52.160;7.526;2023-03-07T14:37:21;0.47;;;0.20;;
73900;SDS011;62235;52.160;7.526;2023-03-07T14:42:34;5.05;;;0.80;;
73900;SDS011;62235;52.160;7.526;2023-03-07T14:50:43;2.47;;;0.80;;
73900;SDS011;62235;52.160;7.526;2023-03-07T14:53:13;0.55;;;0.30;;
73900;SDS011;62235;52.160;7.526;2023-03-07T14:55:42;5.05;;;0.93;;
73900;SDS011;62235;52.160;7.526;2023-03-07T14:58:16;0.95;;;0.52;;
73900;SDS011;62235;52.160;7.526;2023-03-07T15:00:44;1.00;;;0.28;;
73900;SDS011;62235;52.160;7.526;2023-03-07T15:03:12;2.90;;;0.80;;
73900;SDS011;62235;52.160;7.526;2023-03-07T15:05:45;2.58;;;0.85;;
73900;SDS011;62235;52.160;7.526;2023-03-07T15:08:31;2.33;;;0.45;;
73900;SDS011;62235;52.160;7.526;2023-03-07T15:16:42;3.30;;;1.00;;
73900;SDS011;62235;52.160;7.526;2023-03-07T15:19:28;2.90;;;0.90;;
73900;SDS011;62235;52.160;7.526;2023-03-07T15:21:59;1.13;;;0.70;;
73900;SDS011;62235;52.160;7.526;2023-03-07T15:24:30;2.10;;;0.88;;
73900;SDS011;62235;52.160;7.526;2023-03-07T15:27:00;1.15;;;0.47;;
73900;SDS011;62235;52.160;7.526;2023-03-07T15:29:26;4.80;;;1.35;;
73900;SDS011;62235;52.160;7.526;2023-03-07T15:31:53;3.47;;;1.30;;
73900;SDS011;62235;52.160;7.526;2023-03-07T15:34:25;4.22;;;1.65;;
73900;SDS011;62235;52.160;7.526;2023-03-07T15:37:01;3.00;;;1.13;;
73900;SDS011;62235;52.160;7.526;2023-03-07T15:39:52;3.28;;;1.60;;
73900;SDS011;62235;52.160;7.526;2023-03-07T15:42:19;2.80;;;0.90;;
73900;SDS011;62235;52.160;7.526;2023-03-07T15:44:55;3.17;;;2.22;;
73900;SDS011;62235;52.160;7.526;2023-03-07T15:47:21;3.50;;;1.20;;
73900;SDS011;62235;52.160;7.526;2023-03-07T15:49:48;4.05;;;1.08;;
73900;SDS011;62235;52.160;7.526;2023-03-07T15:52:18;2.08;;;1.10;;
73900;SDS011;62235;52.160;7.526;2023-03-07T15:54:48;2.83;;;1.70;;
73900;SDS011;62235;52.160;7.526;2023-03-07T15:57:22;2.22;;;1.17;;
73900;SDS011;62235;52.160;7.526;2023-03-07T16:00:02;1.27;;;0.65;;
73900;SDS011;62235;52.160;7.526;2023-03-07T16:04:55;0.40;;;0.30;;
73900;SDS011;62235;52.160;7.526;2023-03-07T16:07:24;1.95;;;0.55;;
73900;SDS011;62235;52.160;7.526;2023-03-07T16:09:49;1.30;;;0.80;;
73900;SDS011;62235;52.160;7.526;2023-03-07T16:12:18;4.87;;;0.50;;
73900;SDS011;62235;52.160;7.526;2023-03-07T16:14:46;5.00;;;2.65;;
73900;SDS011;62235;52.160;7.526;2023-03-07T16:17:16;2.08;;;1.08;;
73900;SDS011;62235;52.160;7.526;2023-03-07T16:19:51;4.85;;;1.73;;
73900;SDS011;62235;52.160;7.526;2023-03-07T16:22:17;4.25;;;1.80;;
73900;SDS011;62235;52.160;7.526;2023-03-07T16:24:43;9.73;;;3.00;;
73900;SDS011;62235;52.160;7.526;2023-03-07T16:27:15;7.15;;;2.13;;
73900;SDS011;62235;52.160;7.526;2023-03-07T16:29:43;7.95;;;2.72;;
73900;SDS011;62235;52.160;7.526;2023-03-07T16:32:13;5.90;;;2.53;;
73900;SDS011;62235;52.160;7.526;2023-03-07T16:34:39;5.38;;;2.50;;
73900;SDS011;62235;52.160;7.526;2023-03-07T16:37:05;3.70;;;2.15;;
73900;SDS011;62235;52.160;7.526;2023-03-07T16:39:31;3.10;;;1.33;;
73900;SDS011;62235;52.160;7.526;2023-03-07T16:41:56;3.33;;;1.83;;
73900;SDS011;62235;52.160;7.526;2023-03-07T16:44:21;7.28;;;3.13;;
73900;SDS011;62235;52.160;7.526;2023-03-07T16:46:50;5.00;;;3.22;;
73900;SDS011;62235;52.160;7.526;2023-03-07T16:49:19;4.38;;;2.38;;
73900;SDS011;62235;52.160;7.526;2023-03-07T16:51:44;10.20;;;3.72;;
73900;SDS011;62235;52.160;7.526;2023-03-07T16:54:10;7.22;;;2.45;;
73900;SDS011;62235;52.160;7.526;2023-03-07T16:56:36;4.70;;;1.67;;
73900;SDS011;62235;52.160;7.526;2023-03-07T16:59:04;4.15;;;2.28;;
73900;SDS011;62235;52.160;7.526;2023-03-07T17:01:30;7.38;;;3.80;;
73900;SDS011;62235;52.160;7.526;2023-03-07T17:03:55;8.53;;;5.17;;
73900;SDS011;62235;52.160;7.526;2023-03-07T17:06:20;13.37;;;5.87;;